Time,TemperatureF,DewpointF,PressureIn,WindDirection,WindDirectionDegrees,WindSpeedMPH,WindSpeedGustMPH,Humidity,HourlyPrecipIn,Conditions,Clouds,dailyrainin,SoftwareType,DateUTC
2013-05-21 00:02:00,42.8,35.4,29.80,ESE,112,0.0,-999.0,75,-99.99,,,0.00,Acu-Link.com,2013-05-21 07:02:00,
2013-05-21 00:17:00,42.8,35.4,29.78,NNW,337,0.0,-999.0,75,-99.99,,,0.00,Acu-Link.com,2013-05-21 07:17:00,
2013-05-21 00:32:00,42.8,35.8,29.78,SE,135,0.0,-999.0,76,-99.99,,,0.00,Acu-Link.com,2013-05-21 07:32:00,
2013-05-21 00:48:00,42.8,35.8,29.77,South,180,0.0,-999.0,76,-99.99,,,0.00,Acu-Link.com,2013-05-21 07:48:00,
2013-05-21 01:03:00,42.8,35.8,29.76,South,180,0.0,-999.0,76,-99.99,,,0.00,Acu-Link.com,2013-05-21 08:03:00,
2013-05-21 01:19:00,42.8,36.1,29.76,South,180,0.0,-999.0,77,-99.99,,,0.00,Acu-Link.com,2013-05-21 08:19:00,
2013-05-21 01:34:00,42.8,36.4,29.76,SSE,157,0.0,-999.0,78,-99.99,,,0.00,Acu-Link.com,2013-05-21 08:34:00,
2013-05-21 01:49:00,42.8,36.4,29.75,South,180,0.0,-999.0,78,-99.99,,,0.00,Acu-Link.com,2013-05-21 08:49:00,
2013-05-21 02:05:00,42.8,36.7,29.74,West,270,0.0,-999.0,79,-99.99,,,0.00,Acu-Link.com,2013-05-21 09:05:00,
2013-05-21 02:20:00,42.8,36.7,29.73,SW,225,0.0,-999.0,79,-99.99,,,0.00,Acu-Link.com,2013-05-21 09:20:00,
2013-05-21 02:35:00,42.8,36.7,29.73,West,270,0.0,-999.0,79,-99.99,,,0.00,Acu-Link.com,2013-05-21 09:35:00,
2013-05-21 02:50:00,42.8,37.4,29.72,WNW,292,0.0,-999.0,81,-99.99,,,0.00,Acu-Link.com,2013-05-21 09:50:00,
2013-05-21 03:05:00,42.8,37.7,29.72,SW,225,3.1,-999.0,82,-99.99,,,0.00,Acu-Link.com,2013-05-21 10:05:00,
2013-05-21 03:20:00,42.8,38.0,29.72,ESE,112,1.6,-999.0,83,-99.99,,,0.00,Acu-Link.com,2013-05-21 10:20:00,
2013-05-21 03:35:00,42.8,38.0,29.71,West,270,0.0,-999.0,83,-99.99,,,0.00,Acu-Link.com,2013-05-21 10:35:00,
2013-05-21 03:50:00,42.8,38.0,29.71,WNW,292,1.6,-999.0,83,-99.99,,,0.00,Acu-Link.com,2013-05-21 10:50:00,
2013-05-21 04:05:00,42.8,38.3,29.71,SSE,157,0.0,-999.0,84,-99.99,,,0.00,Acu-Link.com,2013-05-21 11:05:00,
2013-05-21 04:21:00,42.8,38.3,29.70,NNW,337,0.0,-999.0,84,-99.99,,,0.00,Acu-Link.com,2013-05-21 11:21:00,
2013-05-21 04:36:00,42.8,38.6,29.70,North,0,2.0,-999.0,85,-99.99,,,0.00,Acu-Link.com,2013-05-21 11:36:00,
2013-05-21 04:51:00,42.8,38.9,29.70,South,180,0.0,-999.0,86,-99.99,,,0.00,Acu-Link.com,2013-05-21 11:51:00,
2013-05-21 05:06:00,42.8,38.9,29.69,NNE,22,0.0,-999.0,86,-99.99,,,0.00,Acu-Link.com,2013-05-21 12:06:00,
2013-05-21 05:22:00,42.8,38.9,29.69,West,270,0.0,-999.0,86,-99.99,,,0.00,Acu-Link.com,2013-05-21 12:22:00,
2013-05-21 05:37:00,42.8,38.9,29.69,NE,45,2.0,-999.0,86,-99.99,,,0.00,Acu-Link.com,2013-05-21 12:37:00,
2013-05-21 05:52:00,42.8,39.2,29.68,NNW,337,1.1,-999.0,87,-99.99,,,0.00,Acu-Link.com,2013-05-21 12:52:00,
2013-05-21 06:07:00,42.8,39.2,29.68,SSE,157,0.0,-999.0,87,-99.99,,,0.00,Acu-Link.com,2013-05-21 13:07:00,
2013-05-21 06:22:00,42.8,39.2,29.67,ESE,112,0.0,-999.0,87,-99.99,,,0.00,Acu-Link.com,2013-05-21 13:22:00,
2013-05-21 06:37:00,42.8,39.2,29.67,NE,45,0.0,-999.0,87,-99.99,,,0.00,Acu-Link.com,2013-05-21 13:37:00,
2013-05-21 06:53:00,42.8,38.9,29.66,NNE,22,1.6,-999.0,86,-99.99,,,0.00,Acu-Link.com,2013-05-21 13:53:00,
2013-05-21 07:08:00,44.6,40.7,29.65,West,270,0.0,-999.0,86,-99.99,,,0.00,Acu-Link.com,2013-05-21 14:08:00,
2013-05-21 07:23:00,44.6,40.7,29.66,NNE,22,1.1,-999.0,86,-99.99,,,0.00,Acu-Link.com,2013-05-21 14:23:00,
2013-05-21 07:38:00,44.6,40.4,29.65,NW,315,0.0,-999.0,85,-99.99,,,0.00,Acu-Link.com,2013-05-21 14:38:00,
2013-05-21 07:53:00,44.6,40.4,29.64,SE,135,0.0,-999.0,85,-99.99,,,0.00,Acu-Link.com,2013-05-21 14:53:00,
2013-05-21 08:08:00,44.6,40.1,29.64,NNE,22,1.6,-999.0,84,-99.99,,,0.00,Acu-Link.com,2013-05-21 15:08:00,
2013-05-21 08:24:00,46.4,41.8,29.64,North,0,0.0,-999.0,84,-99.99,,,0.00,Acu-Link.com,2013-05-21 15:24:00,
2013-05-21 08:39:00,46.4,41.2,29.64,SSW,202,0.0,-999.0,82,-99.99,,,0.00,Acu-Link.com,2013-05-21 15:39:00,
2013-05-21 08:54:00,46.4,41.2,29.64,SSW,202,1.6,-999.0,82,-99.99,,,0.00,Acu-Link.com,2013-05-21 15:54:00,
2013-05-21 09:09:00,46.4,41.2,29.63,SSE,157,1.1,-999.0,82,-99.99,,,0.00,Acu-Link.com,2013-05-21 16:09:00,
2013-05-21 09:25:00,46.4,40.9,29.63,SSW,202,2.0,-999.0,81,-99.99,,,0.00,Acu-Link.com,2013-05-21 16:25:00,
2013-05-21 09:40:00,46.4,41.2,29.63,SSW,202,1.1,-999.0,82,-99.99,,,0.00,Acu-Link.com,2013-05-21 16:40:00,
2013-05-21 09:55:00,46.4,40.9,29.62,WNW,292,2.7,-999.0,81,-99.99,,,0.00,Acu-Link.com,2013-05-21 16:55:00,
2013-05-21 10:10:00,50.0,42.7,29.62,NNW,337,1.6,-999.0,76,-99.99,,,0.00,Acu-Link.com,2013-05-21 17:10:00,
2013-05-21 10:26:00,51.8,43.8,29.62,ENE,67,1.6,-999.0,74,-99.99,,,0.00,Acu-Link.com,2013-05-21 17:26:00,
2013-05-21 10:41:00,50.0,42.7,29.60,WNW,292,0.0,-999.0,76,-99.99,,,0.00,Acu-Link.com,2013-05-21 17:41:00,
2013-05-21 10:56:00,50.0,45.0,29.59,East,90,1.6,-999.0,83,-99.99,,,0.00,Acu-Link.com,2013-05-21 17:56:00,
2013-05-21 11:11:00,50.0,45.4,29.62,NE,45,1.1,-999.0,84,-99.99,,,0.01,Acu-Link.com,2013-05-21 18:11:00,
2013-05-21 11:26:00,48.2,44.5,29.60,NE,45,0.0,-999.0,87,-99.99,,,0.08,Acu-Link.com,2013-05-21 18:26:00,
2013-05-21 11:41:00,46.4,43.3,29.60,NW,315,1.1,-999.0,89,-99.99,,,0.12,Acu-Link.com,2013-05-21 18:41:00,
2013-05-21 11:56:00,46.4,43.6,29.61,NNW,337,2.7,-999.0,90,-99.99,,,0.13,Acu-Link.com,2013-05-21 18:56:00,
2013-05-21 12:12:00,46.4,45.9,29.60,ESE,112,0.0,-999.0,98,-99.99,,,0.18,Acu-Link.com,2013-05-21 19:12:00,
2013-05-21 12:27:00,46.4,43.6,29.61,NE,45,0.0,-999.0,90,-99.99,,,0.20,Acu-Link.com,2013-05-21 19:27:00,
2013-05-21 12:42:00,46.4,43.6,29.59,North,0,0.0,-999.0,90,-99.99,,,0.21,Acu-Link.com,2013-05-21 19:42:00,
2013-05-21 12:57:00,46.4,43.3,29.60,SW,225,1.6,-999.0,89,-99.99,,,0.21,Acu-Link.com,2013-05-21 19:57:00,
2013-05-21 13:13:00,48.2,46.3,29.60,NNE,22,1.1,-999.0,93,-99.99,,,0.25,Acu-Link.com,2013-05-21 20:13:00,
2013-05-21 13:28:00,48.2,45.1,29.60,West,270,0.0,-999.0,89,-99.99,,,0.25,Acu-Link.com,2013-05-21 20:28:00,
2013-05-21 13:43:00,46.4,43.9,29.60,North,0,1.6,-999.0,91,-99.99,,,0.26,Acu-Link.com,2013-05-21 20:43:00,
2013-05-21 13:58:00,48.2,45.7,29.59,West,270,2.7,-999.0,91,-99.99,,,0.26,Acu-Link.com,2013-05-21 20:58:00,
2013-05-21 14:13:00,48.2,45.4,29.59,NNW,337,2.0,-999.0,90,-99.99,,,0.27,Acu-Link.com,2013-05-21 21:13:00,
2013-05-21 14:28:00,50.0,47.2,29.57,NNW,337,1.6,-999.0,90,-99.99,,,0.27,Acu-Link.com,2013-05-21 21:28:00,
2013-05-21 14:43:00,50.0,47.2,29.57,NNW,337,1.6,-999.0,90,-99.99,,,0.27,Acu-Link.com,2013-05-21 21:43:00,
2013-05-21 14:58:00,50.0,46.6,29.57,South,180,1.6,-999.0,88,-99.99,,,0.27,Acu-Link.com,2013-05-21 21:58:00,
2013-05-21 15:14:00,50.0,47.2,29.57,NE,45,0.0,-999.0,90,-99.99,,,0.27,Acu-Link.com,2013-05-21 22:14:00,
2013-05-21 15:29:00,50.0,46.3,29.55,NW,315,2.0,-999.0,87,-99.99,,,0.27,Acu-Link.com,2013-05-21 22:29:00,
2013-05-21 15:44:00,50.0,46.9,29.54,NNE,22,1.6,-999.0,89,-99.99,,,0.30,Acu-Link.com,2013-05-21 22:44:00,
2013-05-21 15:59:00,48.2,45.4,29.55,West,270,1.1,-999.0,90,-99.99,,,0.30,Acu-Link.com,2013-05-21 22:59:00,
2013-05-21 16:15:00,48.2,46.0,29.57,SSE,157,2.0,-999.0,92,-99.99,,,0.30,Acu-Link.com,2013-05-21 23:15:00,
2013-05-21 16:30:00,46.4,43.9,29.58,South,180,1.6,-999.0,91,-99.99,,,0.31,Acu-Link.com,2013-05-21 23:30:00,
2013-05-21 16:45:00,46.4,45.9,29.58,NNW,337,2.0,-999.0,98,-99.99,,,0.37,Acu-Link.com,2013-05-21 23:45:00,
2013-05-21 17:00:00,46.4,45.9,29.58,ENE,67,1.6,-999.0,98,-99.99,,,0.40,Acu-Link.com,2013-05-22 00:00:00,
2013-05-21 17:15:00,50.0,49.5,29.57,WSW,247,2.7,-999.0,98,-99.99,,,0.41,Acu-Link.com,2013-05-22 00:15:00,
2013-05-21 17:30:00,50.0,46.9,29.55,NNE,22,0.0,-999.0,89,-99.99,,,0.43,Acu-Link.com,2013-05-22 00:30:00,
2013-05-21 17:46:00,48.2,45.4,29.56,West,270,2.0,-999.0,90,-99.99,,,0.43,Acu-Link.com,2013-05-22 00:46:00,
2013-05-21 18:01:00,46.4,45.9,29.56,West,270,0.0,-999.0,98,-99.99,,,0.43,Acu-Link.com,2013-05-22 01:01:00,
2013-05-21 18:16:00,46.4,45.9,29.57,SE,135,1.1,-999.0,98,-99.99,,,0.46,Acu-Link.com,2013-05-22 01:16:00,
2013-05-21 18:31:00,46.4,45.9,29.58,East,90,0.0,-999.0,98,-99.99,,,0.57,Acu-Link.com,2013-05-22 01:31:00,
2013-05-21 18:46:00,46.4,45.9,29.56,SSW,202,1.1,-999.0,98,-99.99,,,0.59,Acu-Link.com,2013-05-22 01:46:00,
2013-05-21 19:01:00,44.6,44.1,29.55,NNW,337,0.0,-999.0,98,-99.99,,,0.60,Acu-Link.com,2013-05-22 02:01:00,
2013-05-21 19:16:00,44.6,44.1,29.54,SE,135,2.0,-999.0,98,-99.99,,,0.61,Acu-Link.com,2013-05-22 02:16:00,
2013-05-21 19:31:00,44.6,44.1,29.56,North,0,1.6,-999.0,98,-99.99,,,0.61,Acu-Link.com,2013-05-22 02:31:00,
2013-05-21 19:46:00,44.6,44.1,29.57,NNW,337,0.0,-999.0,98,-99.99,,,0.61,Acu-Link.com,2013-05-22 02:46:00,
2013-05-21 20:01:00,44.6,44.1,29.57,South,180,0.0,-999.0,98,-99.99,,,0.61,Acu-Link.com,2013-05-22 03:01:00,
2013-05-21 20:16:00,44.6,44.1,29.59,SSE,157,2.7,-999.0,98,-99.99,,,0.63,Acu-Link.com,2013-05-22 03:16:00,
2013-05-21 20:31:00,44.6,44.1,29.58,NE,45,0.0,-999.0,98,-99.99,,,0.67,Acu-Link.com,2013-05-22 03:31:00,
2013-05-21 20:46:00,44.6,44.1,29.57,NNE,22,0.0,-999.0,98,-99.99,,,0.71,Acu-Link.com,2013-05-22 03:46:00,
2013-05-21 21:01:00,44.6,44.1,29.58,ENE,67,0.0,-999.0,98,-99.99,,,0.73,Acu-Link.com,2013-05-22 04:01:00,
2013-05-21 21:16:00,44.6,44.1,29.57,ESE,112,1.1,-999.0,98,-99.99,,,0.74,Acu-Link.com,2013-05-22 04:16:00,
2013-05-21 21:32:00,44.6,44.1,29.57,NNW,337,0.0,-999.0,98,-99.99,,,0.76,Acu-Link.com,2013-05-22 04:32:00,
2013-05-21 21:47:00,44.6,44.1,29.55,North,0,0.0,-999.0,98,-99.99,,,0.77,Acu-Link.com,2013-05-22 04:47:00,
2013-05-21 22:02:00,44.6,44.1,29.55,NNW,337,1.6,-999.0,98,-99.99,,,0.77,Acu-Link.com,2013-05-22 05:02:00,
2013-05-21 22:17:00,44.6,44.1,29.54,SW,225,0.0,-999.0,98,-99.99,,,0.78,Acu-Link.com,2013-05-22 05:17:00,
2013-05-21 22:32:00,44.6,44.1,29.53,SSW,202,0.0,-999.0,98,-99.99,,,0.80,Acu-Link.com,2013-05-22 05:32:00,
2013-05-21 22:47:00,44.6,44.1,29.53,North,0,0.0,-999.0,98,-99.99,,,0.80,Acu-Link.com,2013-05-22 05:47:00,
2013-05-21 23:02:00,44.6,44.1,29.54,South,180,0.0,-999.0,98,-99.99,,,0.80,Acu-Link.com,2013-05-22 06:02:00,
2013-05-21 23:18:00,44.6,44.1,29.57,West,270,2.0,-999.0,98,-99.99,,,0.80,Acu-Link.com,2013-05-22 06:18:00,
2013-05-21 23:33:00,44.6,44.1,29.57,SW,225,0.0,-999.0,98,-99.99,,,0.87,Acu-Link.com,2013-05-22 06:33:00,
2013-05-21 23:48:00,44.6,44.1,29.58,ESE,112,0.0,-999.0,98,-99.99,,,0.89,Acu-Link.com,2013-05-22 06:48:00,